AirNav   Air Wisconsin pilot careers
 
 621 users online  

5GA
(formerly 30GA)
Elliott Field Airport
Dawsonville, Georgia, USA

GOING TO DAWSONVILLE?


FAA INFORMATION EFFECTIVE 28 FEBRUARY 2019

Location

FAA Identifier: 5GA
Lat/Long: 34-27-30.3050N / 084-10-49.3350W
34-27.505083N / 084-10.822250W
34.4584181 / -84.1803708
(estimated)
Elevation: 1497 ft. / 456 m (estimated)
Variation: 02W (1985)
From city: 4 miles NW of DAWSONVILLE, GA
Time zone: UTC -5 (UTC -4 during Daylight Saving Time)
Zip code: 30534

Airport Operations

Airport use: Open to the public
Activation date: 10/1985
Control tower: no
ARTCC: ATLANTA CENTER
FSS: MACON FLIGHT SERVICE STATION
Attendance: UNATNDD
Wind indicator: yes
Segmented circle: no

Airport Communications

CTAF: 122.9
WX AWOS-3PT at JZP (14 nm W): 118.55 ((706) 253-9008)
WX AWOS-3 at CNI (15 nm SW): 119.825 (770-704-6235)
WX AWOS-3 at 49A (20 nm NW): 118.075 (706 276-4513)

Nearby radio navigation aids

VOR radial/distance  VOR name  Freq  Var
HRSr204/31.9HARRIS VORTAC109.8000E
PDKr015/35.5PEACHTREE VOR/DME116.6005W

 
NDB name  Hdg/Dist  Freq  Var  ID
CHERO056/19.641505WDJD -.. .--- -..
FLOWERY BRANCH321/20.536503WFKV ..-. -.- ...-
CARTERSVILLE069/36.330804WEVZ . ...- --..
CALHOUN090/37.132305WOUK --- ..- -.-

Airport Services

Fuel available: 100LL JET-A
Parking: tiedowns
Airframe service: NONE
Powerplant service: NONE
Bottled oxygen: NONE
Bulk oxygen: NONE

Runway Information

Runway 14/32

Dimensions: 5619 x 40 ft. / 1713 x 12 m
Surface: asphalt, in poor condition
FAILED PAVEMENT AREAS ALG SW EDGE.
RUNWAY 14  RUNWAY 32
Latitude: 34-27.824500N34-27.185667N
Longitude: 084-11.227333W084-10.417167W
Elevation: 1480.0 ft.1497.0 ft.
Traffic pattern: leftleft
Markings: nonenone
Obstructions: 40 ft. trees, 201 ft. from runway, 87 ft. left of centerline
ROAD LCTD ACRS APCH AS CLOSE AS 15 FT FM END OF RWY, 200 FT R; TREES 38 FT TALL, 146 FT FM END OF RWY, 87 FT L; TREES 32 FT TALL, 101 FT FM END OF RWY, 192 FT R.
15 ft. trees, 201 ft. from runway, 123 ft. left of centerline
TREES LCTD AS CLOSE AS 130 FT FM END OF RWY, 160' L; TREES 15 FT TALL FM RWY END TO 200 FT FM END OF RWY, 114 FT L.

Airport Ownership and Management from official FAA records

Ownership: Privately-owned
Owner: BILL ELLIOTT
415 HIGHWAY 53 EAST, SUITE 100
DAWSONVILLE, GA 30534
Phone (706) 265-3256
Manager: CITY OF DAWSONVILLE
415 HIGHWAY 53 EAST, SUITE 100
DAWSONVILLE, GA 30534
Phone (706) 265-3256

Airport Operational Statistics

Aircraft based on the field: 15
Single engine airplanes: 6
Multi engine airplanes: 3
Jet airplanes: 5
Helicopters: 1
    
Aircraft operations: avg 42/month *
100% local general aviation
* for 12-month period ending 01 August 2018

Additional Remarks

RWY GRADE CHG GTR THAN 2% SLP ON RWY 32 APCH END.

Instrument Procedures

There are no published instrument procedures at 5GA.

Some nearby airports with instrument procedures:

KJZP - Pickens County Airport (14 nm W)
KCNI - Cherokee County Airport (15 nm SW)
49A - Gilmer County Airport (20 nm NW)
KGVL - Lee Gilmer Memorial Airport (21 nm SE)
KDZJ - Blairsville Airport (25 nm N)
 
Loc | Ops | Rwys | IFR | FBO | Links
Com | Nav | Svcs | Stats | Notes
Area around 5GA (Elliott Field Airport)
 
Road maps at: MapQuest Bing Google
 
Aerial photo
No photo
 
Sectional chart

 
Airport distance calculator
Flying to Elliott Field Airport? Find the distance to fly.

From to 5GA

Sunrise and sunset
Times for 26-Mar-2019
 Local
(UTC-4)
 Zulu
(UTC)
Morning civil twilight07:0811:08
Sunrise07:3311:33
Sunset19:5223:52
Evening civil twilight20:1700:17

Current date and time
Zulu (UTC)  26-Mar-2019 04:06:21
Local (UTC-4)  26-Mar-2019 00:06:21
 
METAR
KJZP 
14nm W 
260335Z AUTO 36008KT 10SM SCT005 BKN065 10/09 A3003 RMK AO2 T00950090 PNO
KCNI 
15nm SW 
260355Z AUTO 31006KT 10SM CLR 12/10 A3001 RMK AO2
K49A 
20nm NW 
260355Z AUTO 30003KT 2 1/2SM BR SCT047 09/08 A3003 RMK AO2 VIS 1V5 T00870080
KGVL 
21nm SE 
260353Z AUTO 26006KT 10SM CLR 10/09 A2999 RMK AO2 SLP148 T01000094
KDZJ 
25nm N 
260355Z AUTO 00000KT 1/4SM FG OVC002 08/08 A3001 RMK AO2 T00790078
TAF
KRYY 
34nm SW 
251901Z 2519/2618 25008KT P6SM -SHRA SCT030 BKN040 TEMPO 2521/2601 VRB15G30KT 4SM TSRA BKN025CB FM260100 29007KT P6SM -SHRA SCT025 BKN050 FM260300 31006KT P6SM SCT025 BKN050 FM260900 33008KT P6SM SCT015 BKN025 FM261500 02009KT P6SM VCSH SCT015 BKN025
KPDK 
35nm S 
251938Z 2520/2618 24008KT P6SM -SHRA SCT030 BKN040 TEMPO 2520/2524 VRB15G30KT 4SM TSRA BKN025CB FM260100 29008KT P6SM -SHRA SCT025 BKN050 FM260300 30007KT P6SM SCT025 BKN050 FM261000 32008KT P6SM SCT015 BKN025 FM261500 02009KT P6SM VCSH SCT015 BKN025
KMGE 
37nm SW 
260013Z 2600/2703 29010KT 9999 VCTS SCT010 BKN025CB BKN250 QNH2985INS BECMG 2603/2604 30010KT 9999 NSW SCT010 BKN025 QNH2987INS BECMG 2614/2615 35010KT 9999 VCSH SCT020 BKN040 QNH2991INS TX16/2621Z TN09/2612Z
NOTAMs
Click for the latest NOTAMs
NOTAMs are issued by the DoD/FAA and will open in a separate window not controlled by AirNav.

 

 
 

FBO, Fuel Providers, and Aircraft Ground Support

  
 Business Name 
 
 Contact 
 
 Services / Description 
 
Fuel Prices
 
Comments
  
Elliott Airport 706-265-3030
no information available

If you are affiliated with Elliott Airport and would like to show here your services, contact info, web link, logo, and more, click here
100LL Jet A
SS $3.90 $2.90 
 Updated 16-Dec-2018
 
   write
SS=Self service
Update Fuel Prices
 

Would you like to see your business listed on this page?

 If your business provides an interesting product or service to pilots, flight crews, aircraft, or users of the Elliott Field Airport, you should consider listing it here.  To start the listing process, click on the button below
 
Add a business
 

Other Pages about Elliott Field Airport

Update a link
 
Copyright © AirNav, LLC. All rights reserved. Privacy Policy  Contact